Time;durP1;ratioP1;P1;durP2;ratioP2;P2;SDS_P1;SDS_P2;PMS_P1;PMS_P2;Temp;Humidity;BMP_temperature;BMP_pressure;BME280_temperature;BME280_humidity;BME280_pressure;Samples;Min_cycle;Max_cycle;Signal;HPM_P1;HPM_P2
2023/08/18 00:01:53;;;;;;;19.95;5.38;;;19.30;99.90;;;;;;4841638;29;20065;-54
2023/08/18 00:04:20;;;;;;;19.65;5.25;;;19.40;99.90;;;;;;4841908;29;20053;-53
2023/08/18 00:06:46;;;;;;;20.80;4.88;;;19.40;99.90;;;;;;4855846;29;20046;-52
2023/08/18 00:09:13;;;;;;;15.98;4.57;;;19.30;99.90;;;;;;4842137;29;20074;-48
2023/08/18 00:11:40;;;;;;;20.20;5.28;;;19.30;99.90;;;;;;4841477;29;20050;-53
2023/08/18 00:14:07;;;;;;;15.68;4.60;;;19.30;99.90;;;;;;4841613;29;20136;-54
2023/08/18 00:16:34;;;;;;;18.67;5.07;;;19.40;99.90;;;;;;4841512;29;20050;-53
2023/08/18 00:19:00;;;;;;;16.02;5.72;;;19.30;99.90;;;;;;4835916;29;20498;-53
2023/08/18 00:21:27;;;;;;;25.17;5.35;;;19.30;99.90;;;;;;4841987;29;20106;-52
2023/08/18 00:23:54;;;;;;;16.38;4.53;;;19.40;99.90;;;;;;4841503;29;20465;-54
2023/08/18 00:26:21;;;;;;;18.17;4.57;;;19.40;99.90;;;;;;4841631;29;20435;-55
2023/08/18 00:28:48;;;;;;;16.35;4.45;;;19.40;99.90;;;;;;4841881;29;20042;-54
2023/08/18 00:31:14;;;;;;;18.35;4.72;;;19.40;99.90;;;;;;4842558;29;20129;-54
2023/08/18 00:33:41;;;;;;;17.88;4.78;;;19.40;99.90;;;;;;4858945;29;20162;-57
2023/08/18 00:36:08;;;;;;;18.27;4.82;;;19.50;99.90;;;;;;4844720;29;20475;-55
2023/08/18 00:38:35;;;;;;;17.02;4.38;;;19.50;99.90;;;;;;4844793;29;20070;-53
2023/08/18 00:41:01;;;;;;;15.50;4.53;;;19.50;99.90;;;;;;4844659;29;20045;-54
2023/08/18 00:43:28;;;;;;;16.33;4.80;;;19.40;99.90;;;;;;4844755;29;20042;-52
2023/08/18 00:45:55;;;;;;;16.27;4.30;;;19.50;99.90;;;;;;4858405;29;20046;-50
2023/08/18 00:48:22;;;;;;;17.27;4.50;;;19.40;99.90;;;;;;4843262;29;20065;-55
2023/08/18 00:50:49;;;;;;;21.20;5.05;;;19.50;99.90;;;;;;4844768;29;20477;-53
2023/08/18 00:53:15;;;;;;;18.35;5.20;;;19.50;99.90;;;;;;4844605;29;20050;-50
2023/08/18 00:55:42;;;;;;;11.40;4.18;;;19.50;99.90;;;;;;4844493;29;20049;-53
2023/08/18 00:58:09;;;;;;;19.42;4.70;;;19.50;99.90;;;;;;4844254;29;20038;-54
2023/08/18 01:00:36;;;;;;;18.00;4.70;;;19.50;99.90;;;;;;4858116;29;20483;-52
2023/08/18 01:03:04;;;;;;;17.73;4.90;;;19.50;99.90;;;;;;4846332;29;20382;-54
2023/08/18 01:05:32;;;;;;;17.15;4.93;;;19.40;99.90;;;;;;4844564;29;20084;-55
2023/08/18 01:07:59;;;;;;;19.23;4.65;;;19.40;99.90;;;;;;4858320;29;20065;-55
2023/08/18 01:10:26;;;;;;;16.17;4.80;;;19.50;99.90;;;;;;4844271;29;20049;-51
2023/08/18 01:12:53;;;;;;;19.98;5.50;;;19.50;99.90;;;;;;4844485;29;20506;-55
2023/08/18 01:15:20;;;;;;;15.70;4.82;;;19.50;99.90;;;;;;4842959;29;20503;-55
2023/08/18 01:17:47;;;;;;;18.38;4.70;;;19.50;99.90;;;;;;4858742;29;20486;-52
2023/08/18 01:20:14;;;;;;;16.58;5.07;;;19.50;99.90;;;;;;4843166;29;20140;-55
2023/08/18 01:22:41;;;;;;;19.95;5.95;;;19.50;99.90;;;;;;4842949;29;20110;-54
2023/08/18 01:25:08;;;;;;;16.38;6.10;;;19.50;99.90;;;;;;4858299;29;20050;-52
2023/08/18 01:27:35;;;;;;;14.15;5.35;;;19.40;99.90;;;;;;4842532;29;20057;-54
2023/08/18 01:30:03;;;;;;;21.45;6.15;;;19.40;99.90;;;;;;4857691;29;20099;-55
2023/08/18 01:32:30;;;;;;;17.17;5.50;;;19.40;99.90;;;;;;4844070;29;20041;-51
2023/08/18 01:34:57;;;;;;;17.27;5.55;;;19.50;99.90;;;;;;4842878;29;20050;-51
2023/08/18 01:37:23;;;;;;;16.45;6.13;;;19.50;99.90;;;;;;4842470;29;20049;-52
2023/08/18 01:39:50;;;;;;;17.17;5.60;;;19.50;99.90;;;;;;4843904;29;20046;-54
2023/08/18 01:42:17;;;;;;;16.65;5.88;;;19.50;99.90;;;;;;4843578;29;20440;-54
2023/08/18 01:44:43;;;;;;;21.77;5.75;;;19.40;99.90;;;;;;4843687;29;20057;-50
2023/08/18 01:47:10;;;;;;;16.48;6.07;;;19.50;99.90;;;;;;4843453;29;20038;-53
2023/08/18 01:49:37;;;;;;;19.48;6.68;;;19.50;99.90;;;;;;4857773;29;20054;-50
2023/08/18 01:52:04;;;;;;;18.88;6.53;;;19.40;99.90;;;;;;4843766;29;20102;-54
2023/08/18 01:54:30;;;;;;;17.27;6.63;;;19.40;99.90;;;;;;4857624;29;20050;-54
2023/08/18 01:56:57;;;;;;;20.83;7.15;;;19.40;99.90;;;;;;4842327;29;20049;-54
2023/08/18 01:59:26;;;;;;;19.65;7.15;;;19.40;99.90;;;;;;4856769;29;20056;-56
2023/08/18 02:01:55;;;;;;;20.40;6.65;;;19.40;99.90;;;;;;4842041;29;20163;-55
2023/08/18 02:04:22;;;;;;;16.60;6.55;;;19.50;99.90;;;;;;4841776;29;20088;-54
2023/08/18 02:06:48;;;;;;;19.15;6.07;;;19.50;99.90;;;;;;4843089;29;20049;-55
2023/08/18 02:09:16;;;;;;;19.40;6.93;;;19.50;99.90;;;;;;4842405;29;20416;-54
2023/08/18 02:11:43;;;;;;;21.48;7.40;;;19.40;99.90;;;;;;4841803;29;20049;-54
2023/08/18 02:14:09;;;;;;;18.13;6.18;;;19.40;99.90;;;;;;4843398;29;20081;-52
2023/08/18 02:16:36;;;;;;;15.98;6.63;;;19.40;99.90;;;;;;4857191;29;20612;-56
2023/08/18 02:19:03;;;;;;;16.08;6.60;;;19.40;99.90;;;;;;4843199;29;20081;-56
2023/08/18 02:21:31;;;;;;;26.33;6.88;;;19.50;99.90;;;;;;4843320;29;20053;-52
2023/08/18 02:23:58;;;;;;;22.20;6.13;;;19.40;99.90;;;;;;4843072;29;20066;-54
2023/08/18 02:26:24;;;;;;;21.90;6.25;;;19.50;99.90;;;;;;4843065;29;20400;-53
2023/08/18 02:28:51;;;;;;;22.35;6.53;;;19.50;99.90;;;;;;4856909;29;20404;-51
2023/08/18 02:31:19;;;;;;;16.35;6.28;;;19.50;99.90;;;;;;4843140;29;20410;-54
2023/08/18 02:33:46;;;;;;;17.13;5.97;;;19.50;99.90;;;;;;4842892;29;20443;-55
2023/08/18 02:36:13;;;;;;;13.55;5.82;;;19.50;99.90;;;;;;4842756;29;20062;-50
2023/08/18 02:38:40;;;;;;;17.50;5.85;;;19.50;99.90;;;;;;4842770;29;20053;-53
2023/08/18 02:41:07;;;;;;;16.88;6.72;;;19.50;99.90;;;;;;4842786;29;20049;-51
2023/08/18 02:43:35;;;;;;;16.75;6.13;;;19.50;99.90;;;;;;4841410;29;20046;-53
2023/08/18 02:46:02;;;;;;;17.73;5.93;;;19.50;99.90;;;;;;4856947;29;20137;-52
2023/08/18 02:48:29;;;;;;;19.88;6.70;;;19.50;99.90;;;;;;4842884;29;20117;-51
2023/08/18 02:50:56;;;;;;;18.85;6.07;;;19.50;99.90;;;;;;4856894;29;20054;-53
2023/08/18 02:53:23;;;;;;;17.33;6.70;;;19.50;99.90;;;;;;4842391;29;20054;-52
2023/08/18 02:55:50;;;;;;;17.98;6.88;;;19.50;99.90;;;;;;4842207;29;20054;-48
2023/08/18 02:58:17;;;;;;;16.35;6.80;;;19.50;99.90;;;;;;4842605;29;20459;-48
2023/08/18 03:00:44;;;;;;;15.73;6.50;;;19.50;99.90;;;;;;4842628;29;20062;-50
2023/08/18 03:03:11;;;;;;;21.58;6.95;;;19.50;99.90;;;;;;4842551;29;20050;-53
2023/08/18 03:05:38;;;;;;;21.05;7.35;;;19.50;99.90;;;;;;4842428;29;20137;-53
2023/08/18 03:08:05;;;;;;;14.70;6.47;;;19.50;99.90;;;;;;4841099;29;20085;-48
2023/08/18 03:10:32;;;;;;;15.77;7.05;;;19.40;99.90;;;;;;4842536;29;20042;-49
2023/08/18 03:12:58;;;;;;;21.85;8.48;;;19.40;99.90;;;;;;4841526;29;20042;-50
2023/08/18 03:15:25;;;;;;;21.40;8.55;;;19.40;99.90;;;;;;4842458;29;20208;-50
2023/08/18 03:17:52;;;;;;;23.08;8.70;;;19.30;99.90;;;;;;4843586;29;20045;-54
2023/08/18 03:20:19;;;;;;;19.92;8.50;;;19.30;99.90;;;;;;4840667;29;20049;-52
2023/08/18 03:22:46;;;;;;;19.05;8.93;;;19.20;99.90;;;;;;4855992;29;20041;-51
2023/08/18 03:25:12;;;;;;;18.05;9.27;;;19.20;99.90;;;;;;4855811;29;20053;-54
2023/08/18 03:27:39;;;;;;;19.08;9.35;;;19.20;99.90;;;;;;4840674;29;20490;-55
2023/08/18 03:30:08;;;;;;;21.20;9.65;;;19.10;99.90;;;;;;4844278;29;20410;-49
2023/08/18 03:32:34;;;;;;;22.40;10.60;;;19.10;99.90;;;;;;4840575;29;20072;-50
2023/08/18 03:35:01;;;;;;;19.58;9.77;;;19.10;99.90;;;;;;4842380;29;20075;-55
2023/08/18 03:37:28;;;;;;;21.45;10.80;;;19.10;99.90;;;;;;4856099;29;20073;-54
2023/08/18 03:39:56;;;;;;;21.15;11.15;;;19.10;99.90;;;;;;4840819;29;20050;-53
2023/08/18 03:42:23;;;;;;;18.52;11.18;;;19.00;99.90;;;;;;4856104;29;20483;-51
2023/08/18 03:44:51;;;;;;;22.30;10.52;;;19.10;99.90;;;;;;4855986;29;20459;-52
2023/08/18 03:47:18;;;;;;;20.08;9.98;;;19.10;99.90;;;;;;4842149;29;20121;-53
2023/08/18 03:49:44;;;;;;;17.73;9.68;;;19.20;99.90;;;;;;4842123;29;20038;-50
2023/08/18 03:52:11;;;;;;;22.33;11.32;;;19.20;99.90;;;;;;4840680;29;20402;-53
2023/08/18 03:54:38;;;;;;;20.98;11.32;;;19.20;99.90;;;;;;4840579;29;20058;-54
2023/08/18 03:57:05;;;;;;;22.98;12.48;;;19.20;99.90;;;;;;4841732;29;20054;-53
2023/08/18 03:59:32;;;;;;;18.30;12.75;;;19.20;99.90;;;;;;4841658;29;20096;-53
2023/08/18 04:01:58;;;;;;;24.27;12.98;;;19.20;99.90;;;;;;4841903;29;20037;-54
2023/08/18 04:04:25;;;;;;;22.67;12.57;;;19.20;99.90;;;;;;4841943;29;20111;-50
2023/08/18 04:06:52;;;;;;;23.38;13.43;;;19.20;99.90;;;;;;4843572;29;20068;-48
2023/08/18 04:09:19;;;;;;;23.35;13.43;;;19.20;99.90;;;;;;4859635;29;20046;-51
2023/08/18 04:11:46;;;;;;;21.38;12.32;;;19.20;99.90;;;;;;4859613;29;20069;-52
2023/08/18 04:14:14;;;;;;;21.88;14.95;;;19.20;99.90;;;;;;4844186;29;20041;-50
2023/08/18 04:16:41;;;;;;;20.73;13.50;;;19.20;99.90;;;;;;4845180;29;20049;-49
2023/08/18 04:19:07;;;;;;;23.17;14.10;;;19.20;99.90;;;;;;4845291;29;20495;-54
2023/08/18 04:21:36;;;;;;;21.67;14.75;;;19.20;99.90;;;;;;4858978;29;20046;-53
2023/08/18 04:24:03;;;;;;;23.85;16.52;;;19.20;99.90;;;;;;4859220;29;20425;-54
2023/08/18 04:26:30;;;;;;;22.80;16.88;;;19.20;99.90;;;;;;4844071;29;20045;-53
2023/08/18 04:28:57;;;;;;;18.77;15.00;;;19.20;99.90;;;;;;4843775;29;20060;-50
2023/08/18 04:31:24;;;;;;;22.42;15.90;;;19.20;99.90;;;;;;4843687;29;20136;-51
2023/08/18 04:33:55;;;;;;;21.55;18.05;;;19.20;99.90;;;;;;4843613;29;20058;-59
2023/08/18 04:36:22;;;;;;;25.35;18.33;;;19.20;99.90;;;;;;4844875;29;20109;-56
2023/08/18 04:38:49;;;;;;;26.98;18.65;;;19.20;99.90;;;;;;4844782;29;20129;-53
2023/08/18 04:41:21;;;;;;;31.05;21.15;;;19.20;99.90;;;;;;4858019;29;20075;-53
2023/08/18 04:43:50;;;;;;;27.25;22.10;;;19.10;99.90;;;;;;4858802;29;20050;-52
2023/08/18 04:46:20;;;;;;;25.88;20.35;;;19.10;99.90;;;;;;4859011;29;20418;-51
2023/08/18 04:48:47;;;;;;;29.48;25.13;;;19.10;99.90;;;;;;4859017;29;20150;-55
2023/08/18 04:51:14;;;;;;;34.25;25.23;;;19.10;99.90;;;;;;4843252;29;20065;-55
2023/08/18 04:53:41;;;;;;;31.00;24.05;;;19.10;99.90;;;;;;4843216;29;20042;-54
2023/08/18 04:56:09;;;;;;;32.25;24.33;;;19.10;99.90;;;;;;4858568;29;20220;-49
2023/08/18 04:58:36;;;;;;;32.53;25.75;;;19.10;99.90;;;;;;4842430;29;20584;-55
2023/08/18 05:01:03;;;;;;;31.75;27.00;;;19.10;99.90;;;;;;4843686;29;20141;-53
2023/08/18 05:03:30;;;;;;;34.35;28.65;;;19.00;99.90;;;;;;4858837;29;20054;-52
2023/08/18 05:05:58;;;;;;;37.28;26.63;;;19.00;99.90;;;;;;4843158;29;20103;-54
2023/08/18 05:08:24;;;;;;;34.67;27.15;;;19.00;99.90;;;;;;4844646;29;20049;-55
2023/08/18 05:10:51;;;;;;;35.15;26.98;;;19.00;99.90;;;;;;4844202;29;20494;-53
2023/08/18 05:13:18;;;;;;;31.60;26.83;;;19.00;99.90;;;;;;4844574;29;20069;-49
2023/08/18 05:15:45;;;;;;;33.97;26.75;;;19.00;99.90;;;;;;4858452;29;20054;-50
2023/08/18 05:18:11;;;;;;;33.83;25.75;;;19.00;99.90;;;;;;4844001;29;20121;-54
2023/08/18 05:20:38;;;;;;;35.25;24.40;;;19.00;99.90;;;;;;4844267;29;20053;-55
2023/08/18 05:23:05;;;;;;;29.45;22.63;;;19.00;99.90;;;;;;4844208;29;20049;-50
2023/08/18 05:25:32;;;;;;;29.02;22.00;;;19.10;99.90;;;;;;4844129;29;20046;-49
2023/08/18 05:27:59;;;;;;;26.05;20.10;;;19.10;99.90;;;;;;4858054;29;20062;-52
2023/08/18 05:30:25;;;;;;;25.55;20.50;;;19.10;99.90;;;;;;4843890;29;20169;-52
2023/08/18 05:32:52;;;;;;;26.35;19.90;;;19.20;99.90;;;;;;4844265;29;20096;-54
2023/08/18 05:35:19;;;;;;;27.40;19.33;;;19.20;99.90;;;;;;4858144;29;20110;-51
2023/08/18 05:37:46;;;;;;;29.60;19.05;;;19.20;99.90;;;;;;4844039;29;20049;-53
2023/08/18 05:40:12;;;;;;;25.70;18.35;;;19.30;99.90;;;;;;4843900;29;20137;-53
2023/08/18 05:42:39;;;;;;;25.50;17.95;;;19.30;99.90;;;;;;4844018;29;20056;-55
2023/08/18 05:45:06;;;;;;;26.48;18.25;;;19.30;99.90;;;;;;4843950;29;20042;-56
2023/08/18 05:47:33;;;;;;;25.38;16.45;;;19.40;99.90;;;;;;4843859;29;20045;-52
2023/08/18 05:49:59;;;;;;;21.67;16.35;;;19.30;99.90;;;;;;4844223;29;20046;-55
2023/08/18 05:52:26;;;;;;;20.85;16.20;;;19.30;99.90;;;;;;4843705;29;20045;-53
2023/08/18 05:54:53;;;;;;;22.98;17.05;;;19.40;99.90;;;;;;4843795;29;20153;-52
2023/08/18 05:57:20;;;;;;;24.52;15.57;;;19.40;99.90;;;;;;4843754;29;20482;-54
2023/08/18 05:59:47;;;;;;;28.00;17.30;;;19.40;99.90;;;;;;4837338;29;20387;-55
2023/08/18 06:02:14;;;;;;;20.90;16.25;;;19.40;99.90;;;;;;4837928;29;20415;-53
2023/08/18 06:04:40;;;;;;;19.50;15.52;;;19.40;99.90;;;;;;4837583;29;20109;-55
2023/08/18 06:07:07;;;;;;;24.38;15.73;;;19.40;99.90;;;;;;4843285;29;20060;-52
2023/08/18 06:09:34;;;;;;;22.83;15.10;;;19.50;99.90;;;;;;4843398;29;20056;-57
2023/08/18 06:12:01;;;;;;;20.27;14.98;;;19.50;99.90;;;;;;4843606;29;20467;-55
2023/08/18 06:14:28;;;;;;;20.40;15.18;;;19.40;99.90;;;;;;4843434;29;20061;-56
2023/08/18 06:16:54;;;;;;;20.15;14.10;;;19.50;99.90;;;;;;4843416;29;20054;-57
2023/08/18 06:19:21;;;;;;;20.10;14.00;;;19.50;99.90;;;;;;4843081;29;20128;-53
2023/08/18 06:21:48;;;;;;;18.50;13.75;;;19.60;99.90;;;;;;4843002;29;20065;-56
2023/08/18 06:24:15;;;;;;;20.17;13.85;;;19.60;99.90;;;;;;4843397;29;20390;-54
2023/08/18 06:26:42;;;;;;;19.55;12.60;;;19.60;99.90;;;;;;4841871;29;20382;-53
2023/08/18 06:29:08;;;;;;;18.85;12.57;;;19.60;99.90;;;;;;4842318;29;20042;-54
2023/08/18 06:31:35;;;;;;;19.17;12.38;;;19.70;99.90;;;;;;4843088;29;20136;-52
2023/08/18 06:34:02;;;;;;;16.02;12.38;;;19.70;99.90;;;;;;4843179;29;20062;-52
2023/08/18 06:36:29;;;;;;;18.13;13.20;;;19.80;99.90;;;;;;4842950;29;20060;-50
2023/08/18 06:38:55;;;;;;;17.23;11.15;;;19.80;99.90;;;;;;4843033;29;20525;-53
2023/08/18 06:41:22;;;;;;;15.50;11.07;;;19.80;99.90;;;;;;4856942;29;20060;-51
2023/08/18 06:43:49;;;;;;;14.05;10.32;;;19.90;99.90;;;;;;4842802;29;20075;-56
2023/08/18 06:46:16;;;;;;;16.90;10.65;;;19.90;99.90;;;;;;4842499;29;20050;-52
2023/08/18 06:48:43;;;;;;;13.82;9.70;;;19.90;99.90;;;;;;4842653;29;20076;-52
2023/08/18 06:51:10;;;;;;;12.45;10.13;;;20.00;99.90;;;;;;4842912;29;20474;-51
2023/08/18 06:53:36;;;;;;;12.75;10.65;;;20.00;99.90;;;;;;4842839;29;20064;-53
2023/08/18 06:56:06;;;;;;;12.88;10.65;;;20.10;99.90;;;;;;4842711;29;20084;-51
2023/08/18 06:58:33;;;;;;;14.63;10.82;;;20.10;99.90;;;;;;4842411;29;20086;-53
2023/08/18 07:00:59;;;;;;;12.75;10.45;;;20.20;99.90;;;;;;4842420;29;20418;-55
2023/08/18 07:03:26;;;;;;;13.90;10.23;;;20.20;99.90;;;;;;4842614;29;20045;-55
2023/08/18 07:05:53;;;;;;;13.02;9.85;;;20.30;99.90;;;;;;4842342;29;20046;-51
2023/08/18 07:08:20;;;;;;;16.05;11.18;;;20.40;99.90;;;;;;4842544;29;20133;-50
2023/08/18 07:10:46;;;;;;;14.40;10.68;;;20.40;99.90;;;;;;4842502;29;20037;-54
2023/08/18 07:13:13;;;;;;;15.77;11.73;;;20.40;99.90;;;;;;4842441;29;20038;-57
2023/08/18 07:15:40;;;;;;;13.63;10.55;;;20.40;99.90;;;;;;4842282;29;20042;-51
2023/08/18 07:18:07;;;;;;;13.55;10.80;;;20.30;99.90;;;;;;4842108;29;20141;-52
2023/08/18 07:20:34;;;;;;;13.95;10.43;;;20.30;99.90;;;;;;4842219;29;20559;-53
2023/08/18 07:23:01;;;;;;;14.70;11.05;;;20.30;99.90;;;;;;4842337;29;20054;-55
2023/08/18 07:25:28;;;;;;;15.43;11.23;;;20.30;99.90;;;;;;4842374;29;20042;-56
2023/08/18 07:27:55;;;;;;;13.20;10.57;;;20.20;99.90;;;;;;4842196;29;20048;-56
2023/08/18 07:30:21;;;;;;;13.38;11.23;;;20.20;99.90;;;;;;4841965;29;20174;-54
2023/08/18 07:32:48;;;;;;;13.48;11.43;;;20.30;99.90;;;;;;4841973;29;20046;-54
2023/08/18 07:35:15;;;;;;;15.43;11.57;;;20.20;99.90;;;;;;4842080;29;20129;-54
2023/08/18 07:37:42;;;;;;;17.63;12.35;;;20.20;99.90;;;;;;4842076;29;20057;-55
2023/08/18 07:40:21;;;;;;;13.98;10.68;;;20.30;99.90;;;;;;4841824;29;20065;-56
2023/08/18 07:42:48;;;;;;;16.25;10.32;;;20.30;99.90;;;;;;4841831;29;20056;-51
2023/08/18 07:45:15;;;;;;;16.70;10.95;;;20.30;99.90;;;;;;4841645;29;20049;-49
2023/08/18 07:47:42;;;;;;;16.00;11.07;;;20.40;99.90;;;;;;4842171;29;20046;-54
2023/08/18 07:50:09;;;;;;;16.52;11.35;;;20.40;99.90;;;;;;4842009;29;20403;-55
2023/08/18 07:52:36;;;;;;;14.60;11.70;;;20.40;99.90;;;;;;4841991;29;20073;-56
2023/08/18 07:55:03;;;;;;;15.98;11.27;;;20.50;99.90;;;;;;4841976;29;20056;-55
2023/08/18 07:57:31;;;;;;;16.13;10.57;;;20.50;99.90;;;;;;4842256;29;20116;-50
2023/08/18 07:59:58;;;;;;;15.38;11.38;;;20.50;99.90;;;;;;4841748;29;20069;-55
2023/08/18 08:02:25;;;;;;;14.68;10.35;;;20.50;99.90;;;;;;4841898;29;20050;-55
2023/08/18 08:04:56;;;;;;;17.17;11.05;;;20.40;99.90;;;;;;4841920;29;20064;-53
2023/08/18 08:07:24;;;;;;;16.90;12.48;;;20.40;99.90;;;;;;4841711;29;20072;-54
2023/08/18 08:09:52;;;;;;;14.52;11.82;;;20.40;99.90;;;;;;4839748;29;20042;-53
2023/08/18 08:12:19;;;;;;;18.00;12.82;;;20.40;99.90;;;;;;4858323;29;20046;-54
2023/08/18 08:14:46;;;;;;;19.05;13.68;;;20.40;99.90;;;;;;4847034;29;20110;-52
2023/08/18 08:17:13;;;;;;;23.23;13.82;;;20.40;99.90;;;;;;4840724;29;20439;-56
2023/08/18 08:19:39;;;;;;;19.30;14.55;;;20.40;99.90;;;;;;4840962;29;20050;-53
2023/08/18 08:22:09;;;;;;;19.63;15.38;;;20.30;99.90;;;;;;4841253;29;20046;-54
2023/08/18 08:24:36;;;;;;;17.30;14.75;;;20.40;99.90;;;;;;4843324;29;20116;-53
2023/08/18 08:27:04;;;;;;;25.52;15.75;;;20.40;99.90;;;;;;4860043;29;20106;-53
2023/08/18 08:29:31;;;;;;;25.80;15.52;;;20.40;99.90;;;;;;4850096;29;20076;-56
2023/08/18 08:31:57;;;;;;;20.95;15.07;;;20.40;99.90;;;;;;4841774;29;20054;-52
2023/08/18 08:34:24;;;;;;;19.95;15.27;;;20.40;99.90;;;;;;4841430;29;20532;-53
2023/08/18 08:36:51;;;;;;;19.65;16.15;;;20.40;99.90;;;;;;4841445;29;20061;-55
2023/08/18 08:39:18;;;;;;;21.08;16.90;;;20.40;99.90;;;;;;4841016;29;20494;-54
2023/08/18 08:41:45;;;;;;;23.90;16.38;;;20.40;99.90;;;;;;4855465;29;20045;-52
2023/08/18 08:44:12;;;;;;;24.23;17.77;;;20.40;99.90;;;;;;4841586;29;20050;-55
2023/08/18 08:46:40;;;;;;;19.48;16.80;;;20.40;99.90;;;;;;4841247;29;20459;-50
2023/08/18 08:49:07;;;;;;;21.05;16.40;;;20.30;99.90;;;;;;4840624;29;20044;-56
2023/08/18 08:51:33;;;;;;;25.70;17.77;;;20.30;99.90;;;;;;4841207;29;20552;-56
2023/08/18 08:54:02;;;;;;;21.38;18.45;;;20.30;99.90;;;;;;4844451;29;20050;-54
2023/08/18 08:56:30;;;;;;;27.00;19.15;;;20.30;99.90;;;;;;4844517;29;20129;-52
2023/08/18 08:58:57;;;;;;;24.42;19.98;;;20.30;99.90;;;;;;4844084;29;20062;-48
2023/08/18 09:01:24;;;;;;;24.08;19.95;;;20.20;99.90;;;;;;4844580;29;20045;-49
2023/08/18 09:03:51;;;;;;;26.55;21.45;;;20.20;99.90;;;;;;4845056;29;20134;-53
2023/08/18 09:06:18;;;;;;;27.55;20.50;;;20.20;99.90;;;;;;4844423;29;20045;-60
2023/08/18 09:08:44;;;;;;;26.63;20.38;;;20.20;99.90;;;;;;4844604;29;20486;-50
2023/08/18 09:11:11;;;;;;;23.75;19.60;;;20.20;99.90;;;;;;4844646;29;20042;-55
2023/08/18 09:13:39;;;;;;;24.52;20.65;;;20.30;99.90;;;;;;4844388;29;20038;-52
2023/08/18 09:16:09;;;;;;;23.70;20.05;;;20.20;99.90;;;;;;4844082;29;20050;-49
2023/08/18 09:18:36;;;;;;;26.80;21.80;;;20.20;99.90;;;;;;4843937;29;20058;-49
2023/08/18 09:21:06;;;;;;;26.63;20.92;;;20.20;99.90;;;;;;4842959;29;20053;-50
2023/08/18 09:23:34;;;;;;;26.85;21.10;;;20.20;99.90;;;;;;4842613;29;20136;-52
2023/08/18 09:26:00;;;;;;;26.38;21.08;;;20.10;99.90;;;;;;4843021;29;20138;-53
2023/08/18 09:28:28;;;;;;;24.50;21.33;;;20.10;99.90;;;;;;4842928;29;20046;-54
2023/08/18 09:30:55;;;;;;;26.25;21.70;;;20.10;99.90;;;;;;4843119;29;20046;-54
2023/08/18 09:33:22;;;;;;;27.73;20.92;;;20.10;99.90;;;;;;4842858;29;20137;-55
2023/08/18 09:35:52;;;;;;;27.60;20.77;;;20.10;99.90;;;;;;4843919;29;20049;-50
2023/08/18 09:38:20;;;;;;;25.42;21.35;;;20.00;99.90;;;;;;4844492;29;20054;-52
2023/08/18 09:40:46;;;;;;;24.65;20.67;;;20.00;99.90;;;;;;4844368;29;20054;-52
2023/08/18 09:43:15;;;;;;;28.08;21.80;;;20.00;99.90;;;;;;4844243;29;20482;-53
2023/08/18 09:45:41;;;;;;;26.60;21.40;;;20.00;99.90;;;;;;4844442;29;20042;-54
2023/08/18 09:48:08;;;;;;;29.35;22.80;;;20.10;99.90;;;;;;4844359;29;20046;-50
2023/08/18 09:50:35;;;;;;;27.08;22.40;;;20.00;99.90;;;;;;4843921;29;20107;-50
2023/08/18 09:53:02;;;;;;;26.50;22.20;;;20.10;99.90;;;;;;4844325;29;20042;-55
2023/08/18 09:55:29;;;;;;;25.48;20.75;;;20.10;99.90;;;;;;4844287;29;20053;-50
2023/08/18 09:57:55;;;;;;;25.98;21.73;;;20.10;99.90;;;;;;4843860;29;20489;-49
2023/08/18 10:00:22;;;;;;;26.30;22.20;;;20.20;99.90;;;;;;4843761;29;20065;-56
2023/08/18 10:02:49;;;;;;;26.20;22.90;;;20.30;99.90;;;;;;4843658;29;20041;-56
2023/08/18 10:05:16;;;;;;;29.98;23.85;;;20.40;99.90;;;;;;4842774;29;20048;-54
2023/08/18 10:07:42;;;;;;;26.67;21.88;;;20.40;99.90;;;;;;4843535;29;20052;-56
2023/08/18 10:10:09;;;;;;;25.15;22.10;;;20.40;99.90;;;;;;4857801;29;20038;-53
2023/08/18 10:12:36;;;;;;;24.40;20.98;;;20.50;99.90;;;;;;4843561;29;20042;-51
2023/08/18 10:15:03;;;;;;;27.27;22.52;;;20.50;99.90;;;;;;4844048;29;20046;-54
2023/08/18 10:17:30;;;;;;;26.45;22.05;;;20.50;99.90;;;;;;4843755;29;20514;-49
2023/08/18 10:19:58;;;;;;;26.02;22.17;;;20.50;99.90;;;;;;4843296;29;20050;-53
2023/08/18 10:22:25;;;;;;;27.42;22.80;;;20.60;99.90;;;;;;4843079;29;20056;-53
2023/08/18 10:24:52;;;;;;;26.67;21.88;;;20.70;99.90;;;;;;4843831;29;20053;-54
2023/08/18 10:27:18;;;;;;;23.75;20.63;;;20.80;99.90;;;;;;4843267;29;20094;-56
2023/08/18 10:29:45;;;;;;;23.73;21.02;;;20.90;99.90;;;;;;4843673;29;20046;-55
2023/08/18 10:32:12;;;;;;;24.88;21.05;;;21.00;99.90;;;;;;4843214;29;20050;-53
2023/08/18 10:34:39;;;;;;;23.70;20.65;;;21.10;99.90;;;;;;4843092;29;20046;-50
2023/08/18 10:37:07;;;;;;;28.65;21.55;;;21.10;99.90;;;;;;4843233;29;20102;-53
2023/08/18 10:39:36;;;;;;;24.10;19.92;;;21.10;99.90;;;;;;4843105;29;20375;-53
2023/08/18 10:42:03;;;;;;;23.40;20.10;;;21.20;99.90;;;;;;4843314;29;20069;-55
2023/08/18 10:44:29;;;;;;;23.45;19.67;;;21.30;99.90;;;;;;4843626;29;20045;-55
2023/08/18 10:46:56;;;;;;;26.25;19.52;;;21.50;99.90;;;;;;4842916;29;20046;-56
2023/08/18 10:49:23;;;;;;;21.45;18.67;;;21.50;99.90;;;;;;4856885;29;20189;-52
2023/08/18 10:51:50;;;;;;;22.33;18.73;;;21.50;99.90;;;;;;4842938;29;20077;-55
2023/08/18 10:54:17;;;;;;;23.15;18.80;;;21.50;99.90;;;;;;4857384;29;20046;-54
2023/08/18 10:56:44;;;;;;;24.75;18.50;;;21.60;99.90;;;;;;4842600;29;20042;-55
2023/08/18 10:59:11;;;;;;;20.90;18.60;;;21.70;99.90;;;;;;4843514;29;20057;-54
2023/08/18 11:01:37;;;;;;;24.23;20.73;;;21.70;99.90;;;;;;4843034;29;20060;-49
2023/08/18 11:04:04;;;;;;;24.27;20.48;;;21.80;99.90;;;;;;4843100;29;20050;-55
2023/08/18 11:06:31;;;;;;;27.55;22.55;;;21.80;99.90;;;;;;4842438;29;20053;-53
2023/08/18 11:08:58;;;;;;;28.58;22.38;;;22.00;99.90;;;;;;4842747;29;20048;-53
2023/08/18 11:11:24;;;;;;;29.73;24.27;;;22.10;99.90;;;;;;4842851;29;20491;-55
2023/08/18 11:13:51;;;;;;;28.00;23.30;;;22.10;99.90;;;;;;4856686;29;20356;-51
2023/08/18 11:16:18;;;;;;;30.60;23.83;;;22.20;99.90;;;;;;4842552;29;20137;-57
2023/08/18 11:18:45;;;;;;;26.42;23.55;;;22.30;99.90;;;;;;4842700;29;20115;-53
2023/08/18 11:21:12;;;;;;;26.83;22.90;;;22.40;99.90;;;;;;4842714;29;20137;-53
2023/08/18 11:23:39;;;;;;;28.98;24.42;;;22.40;99.90;;;;;;4842903;29;20054;-54
2023/08/18 11:26:05;;;;;;;28.63;24.95;;;22.50;99.90;;;;;;4842646;29;20049;-55
2023/08/18 11:28:32;;;;;;;28.15;24.45;;;22.60;99.90;;;;;;4842389;29;20049;-55
2023/08/18 11:31:04;;;;;;;27.70;24.52;;;22.50;99.90;;;;;;4842581;29;20046;-57
2023/08/18 11:33:31;;;;;;;27.88;24.48;;;22.60;99.90;;;;;;4842693;29;20046;-53
2023/08/18 11:35:58;;;;;;;27.40;23.58;;;22.70;99.90;;;;;;4842776;29;20050;-52
2023/08/18 11:38:28;;;;;;;27.00;24.10;;;22.70;99.90;;;;;;4842726;29;20116;-54
2023/08/18 11:40:56;;;;;;;28.83;23.02;;;22.70;99.90;;;;;;4842339;29;20096;-52
2023/08/18 11:43:23;;;;;;;28.77;23.10;;;22.60;99.90;;;;;;4841950;29;20065;-53
2023/08/18 11:45:50;;;;;;;24.83;21.80;;;22.80;99.90;;;;;;4842670;29;20472;-53
2023/08/18 11:48:20;;;;;;;25.75;22.58;;;22.80;99.90;;;;;;4842381;29;20493;-54
2023/08/18 11:50:47;;;;;;;24.75;20.42;;;22.90;99.90;;;;;;4842679;29;20045;-55
2023/08/18 11:53:13;;;;;;;23.60;20.20;;;22.90;99.90;;;;;;4842256;29;20046;-52
2023/08/18 11:55:40;;;;;;;24.27;19.90;;;22.90;99.90;;;;;;4842048;29;20038;-56
2023/08/18 11:58:10;;;;;;;23.13;20.20;;;22.90;99.90;;;;;;4855836;29;20058;-54
2023/08/18 12:00:37;;;;;;;22.27;19.88;;;22.80;99.90;;;;;;4841954;29;20081;-54
2023/08/18 12:03:04;;;;;;;20.63;18.20;;;22.90;99.90;;;;;;4842451;29;20497;-56
2023/08/18 12:05:31;;;;;;;22.45;18.73;;;22.90;99.90;;;;;;4841858;29;20513;-54
2023/08/18 12:07:59;;;;;;;21.67;18.40;;;23.00;99.90;;;;;;4842043;29;20077;-52
2023/08/18 12:10:26;;;;;;;23.83;19.27;;;23.00;99.90;;;;;;4842241;29;20050;-52
2023/08/18 12:12:53;;;;;;;24.40;17.77;;;23.00;99.90;;;;;;4842072;29;20045;-53
2023/08/18 12:15:20;;;;;;;21.30;18.15;;;23.10;99.90;;;;;;4842355;29;20125;-50
2023/08/18 12:17:47;;;;;;;19.67;17.67;;;23.30;99.90;;;;;;4842205;29;20102;-53
2023/08/18 12:20:13;;;;;;;21.75;17.67;;;23.40;99.90;;;;;;4856416;29;20050;-57
2023/08/18 12:22:40;;;;;;;25.70;18.35;;;23.50;99.90;;;;;;4841845;29;20042;-56
2023/08/18 12:25:07;;;;;;;21.33;17.52;;;23.60;99.90;;;;;;4842041;29;20394;-56
2023/08/18 12:27:34;;;;;;;19.75;17.17;;;23.70;99.90;;;;;;4843332;29;20141;-55
2023/08/18 12:30:01;;;;;;;20.23;16.92;;;23.80;99.90;;;;;;4845029;29;20490;-56